createdAt,value
2023-01-04T00:01:51.464Z,32.00
2023-01-04T00:04:17.810Z,30.45
2023-01-04T00:06:44.335Z,28.38
2023-01-04T00:09:10.616Z,31.92
2023-01-04T00:11:37.475Z,33.03
2023-01-04T00:14:03.771Z,34.83
2023-01-04T00:16:33.060Z,38.28
2023-01-04T00:18:59.510Z,28.05
2023-01-04T00:21:28.578Z,31.67
2023-01-04T00:23:57.287Z,31.92
2023-01-04T00:26:26.516Z,28.63
2023-01-04T00:28:54.781Z,33.17
2023-01-04T00:31:23.008Z,26.33
2023-01-04T00:33:53.876Z,35.10
2023-01-04T00:36:20.511Z,28.65
2023-01-04T00:38:47.247Z,28.83
2023-01-04T00:41:56.829Z,31.88
2023-01-04T00:44:02.532Z,27.45
2023-01-04T00:46:29.580Z,28.42
2023-01-04T00:49:00.224Z,29.08
2023-01-04T00:52:17.560Z,37.00
2023-01-04T00:54:43.893Z,31.02
2023-01-04T00:57:10.549Z,31.50
2023-01-04T00:59:37.081Z,33.50
2023-01-04T01:02:03.779Z,26.63
2023-01-04T01:04:30.297Z,30.27
2023-01-04T01:06:57.156Z,25.50
2023-01-04T01:09:23.863Z,30.83
2023-01-04T01:11:52.708Z,32.33
2023-01-04T01:14:23.144Z,26.52
2023-01-04T01:16:55.803Z,34.10
2023-01-04T01:19:23.328Z,30.83
2023-01-04T01:21:50.124Z,30.02
2023-01-04T01:24:18.411Z,27.58
2023-01-04T01:26:45.717Z,21.20
2023-01-04T01:29:12.122Z,25.27
2023-01-04T01:31:40.534Z,29.02
2023-01-04T01:34:07.317Z,25.65
2023-01-04T01:36:34.061Z,23.52
2023-01-04T01:39:00.491Z,28.00
2023-01-04T01:41:30.049Z,21.85
2023-01-04T01:44:03.532Z,21.02
2023-01-04T01:46:38.889Z,28.27
2023-01-04T01:49:12.677Z,21.92
2023-01-04T01:51:40.844Z,27.00
2023-01-04T01:54:13.390Z,25.17
2023-01-04T01:59:10.182Z,24.27
2023-01-04T02:01:36.984Z,25.92
2023-01-04T02:04:04.636Z,22.42
2023-01-04T02:06:38.846Z,24.40
2023-01-04T02:09:05.354Z,22.08
2023-01-04T02:11:33.365Z,21.88
2023-01-04T02:14:19.760Z,24.13
2023-01-04T02:17:22.037Z,23.20
2023-01-04T02:20:15.519Z,22.35
2023-01-04T02:23:19.164Z,23.52
2023-01-04T02:25:54.772Z,27.00
2023-01-04T02:29:03.361Z,26.85
2023-01-04T02:31:49.353Z,24.70
2023-01-04T02:34:28.015Z,33.63
2023-01-04T02:37:38.847Z,28.75
2023-01-04T02:40:25.291Z,23.17
2023-01-04T02:43:18.248Z,24.38
2023-01-04T02:45:52.784Z,24.15
2023-01-04T02:48:37.994Z,26.70
2023-01-04T02:51:04.793Z,22.88
2023-01-04T02:53:39.507Z,36.47
2023-01-04T02:56:36.610Z,32.47
2023-01-04T02:59:02.963Z,27.90
2023-01-04T03:02:20.733Z,39.45
2023-01-04T03:05:26.836Z,33.40
2023-01-04T03:08:17.073Z,32.45
2023-01-04T03:11:42.794Z,38.10
2023-01-04T03:14:33.203Z,31.13
2023-01-04T03:17:03.849Z,30.10
2023-01-04T03:19:50.953Z,33.42
2023-01-04T03:22:41.309Z,30.20
2023-01-04T03:25:27.161Z,35.50
2023-01-04T03:28:13.767Z,36.67
2023-01-04T03:31:08.769Z,38.03
2023-01-04T03:33:54.349Z,37.97
2023-01-04T03:36:41.337Z,42.55
2023-01-04T03:40:20.114Z,37.78
2023-01-04T03:43:18.306Z,36.70
2023-01-04T03:46:09.551Z,40.95
2023-01-04T03:48:40.033Z,39.70
2023-01-04T03:51:14.905Z,44.78
2023-01-04T03:53:51.213Z,35.65
2023-01-04T03:56:19.119Z,34.03
2023-01-04T03:58:46.179Z,40.45
2023-01-04T04:01:13.104Z,31.83
2023-01-04T04:03:58.329Z,34.08
2023-01-04T04:06:43.505Z,35.42
2023-01-04T04:09:10.227Z,36.22
2023-01-04T04:11:36.619Z,40.03
2023-01-04T04:14:03.406Z,36.47
2023-01-04T04:16:30.325Z,38.85
2023-01-04T04:18:57.088Z,51.17
2023-01-04T04:21:23.535Z,43.08
2023-01-04T04:23:50.223Z,34.88
2023-01-04T04:26:17.044Z,42.33
2023-01-04T04:28:44.031Z,38.45
2023-01-04T04:31:10.570Z,49.10
2023-01-04T04:33:37.617Z,43.65
2023-01-04T04:36:04.301Z,36.90
2023-01-04T04:38:31.036Z,44.55
2023-01-04T04:41:15.857Z,46.17
2023-01-04T04:43:42.533Z,51.88
2023-01-04T04:46:08.955Z,43.67
2023-01-04T04:48:35.660Z,50.42
2023-01-04T04:51:02.003Z,49.33
2023-01-04T04:53:28.679Z,51.10
2023-01-04T04:55:55.118Z,48.15
2023-01-04T04:58:22.641Z,52.60
2023-01-04T05:00:49.091Z,48.58
2023-01-04T05:03:15.883Z,40.28
2023-01-04T05:05:42.630Z,47.25
2023-01-04T05:08:09.372Z,47.60
2023-01-04T05:10:37.157Z,50.30
2023-01-04T05:13:06.191Z,49.22
2023-01-04T05:15:43.742Z,48.67
2023-01-04T05:18:12.268Z,43.92
2023-01-04T05:20:39.192Z,55.85
2023-01-04T05:23:07.692Z,48.45
2023-01-04T05:25:34.278Z,40.13
2023-01-04T05:28:01.163Z,47.28
2023-01-04T05:30:46.226Z,48.70
2023-01-04T05:33:12.988Z,40.50
2023-01-04T05:35:39.356Z,46.78
2023-01-04T05:38:06.447Z,50.35
2023-01-04T05:40:32.928Z,44.05
2023-01-04T05:42:59.975Z,46.22
2023-01-04T05:45:26.555Z,39.10
2023-01-04T05:47:53.987Z,44.80
2023-01-04T05:50:22.586Z,45.72
2023-01-04T05:52:49.464Z,45.72
2023-01-04T05:55:16.025Z,45.20
2023-01-04T05:57:43.290Z,46.42
2023-01-04T06:00:11.310Z,44.72
2023-01-04T06:02:38.086Z,46.42
2023-01-04T06:05:05.544Z,36.97
2023-01-04T06:07:32.371Z,50.65
2023-01-04T06:09:58.903Z,41.65
2023-01-04T06:12:25.892Z,46.33
2023-01-04T06:14:52.460Z,42.00
2023-01-04T06:17:19.563Z,39.60
2023-01-04T06:19:46.136Z,38.42
2023-01-04T06:22:12.951Z,36.15
2023-01-04T06:24:39.289Z,38.30
2023-01-04T06:27:06.030Z,34.08
2023-01-04T06:29:32.534Z,40.40
2023-01-04T06:31:59.484Z,35.67
2023-01-04T06:34:30.837Z,32.60
2023-01-04T06:36:58.492Z,34.00
2023-01-04T06:39:25.076Z,35.53
2023-01-04T06:41:51.758Z,35.17
2023-01-04T06:44:18.066Z,38.35
2023-01-04T06:46:44.744Z,34.28
2023-01-04T06:49:11.366Z,44.60
2023-01-04T06:51:38.109Z,37.33
2023-01-04T06:54:04.466Z,40.42
2023-01-04T06:56:31.631Z,36.70
2023-01-04T06:58:58.731Z,41.80
2023-01-04T07:01:25.751Z,42.33
2023-01-04T07:03:52.222Z,40.65
2023-01-04T07:06:19.368Z,40.17
2023-01-04T07:08:45.760Z,36.28
2023-01-04T07:11:12.405Z,34.38
2023-01-04T07:13:38.875Z,46.50
2023-01-04T07:16:06.121Z,54.47
2023-01-04T07:18:32.569Z,46.45
2023-01-04T07:20:59.646Z,36.15
2023-01-04T07:23:26.155Z,38.58
2023-01-04T07:25:52.963Z,40.22
2023-01-04T07:28:38.120Z,43.95
2023-01-04T07:31:07.142Z,41.80
2023-01-04T07:33:33.904Z,43.55
2023-01-04T07:36:05.485Z,41.55
2023-01-04T07:38:33.600Z,39.83
2023-01-04T07:41:00.401Z,45.22
2023-01-04T07:43:28.550Z,42.17
2023-01-04T07:45:56.346Z,42.40
2023-01-04T07:48:22.721Z,48.28
2023-01-04T07:50:50.251Z,40.30
2023-01-04T07:53:17.995Z,47.97
2023-01-04T07:55:45.116Z,43.05
2023-01-04T07:58:11.604Z,40.85
2023-01-04T08:00:38.327Z,54.00
2023-01-04T08:03:05.040Z,46.28
2023-01-04T08:05:32.955Z,50.30
2023-01-04T08:07:59.828Z,53.88
2023-01-04T08:10:27.420Z,45.22
2023-01-04T08:12:54.046Z,42.70
2023-01-04T08:15:20.769Z,52.88
2023-01-04T08:17:47.171Z,42.17
2023-01-04T08:20:13.946Z,47.30
2023-01-04T08:22:40.385Z,50.30
2023-01-04T08:25:07.420Z,49.50
2023-01-04T08:27:34.010Z,50.95
2023-01-04T08:30:00.765Z,48.85
2023-01-04T08:32:27.537Z,42.30
2023-01-04T08:34:54.914Z,48.53
2023-01-04T08:37:22.393Z,50.58
2023-01-04T08:39:50.127Z,49.75
2023-01-04T08:42:22.475Z,47.28
2023-01-04T08:44:59.499Z,50.10
2023-01-04T08:47:28.157Z,48.55
2023-01-04T08:49:55.944Z,45.65
2023-01-04T08:52:22.505Z,48.25
2023-01-04T08:54:49.783Z,47.17
2023-01-04T08:57:16.947Z,46.63
2023-01-04T08:59:43.833Z,48.85
2023-01-04T09:02:28.551Z,39.72
2023-01-04T09:04:59.001Z,44.05
2023-01-04T09:07:27.927Z,44.03
2023-01-04T09:09:54.732Z,48.70
2023-01-04T09:12:21.156Z,48.20
2023-01-04T09:14:48.355Z,41.33
2023-01-04T09:17:15.053Z,47.53
2023-01-04T09:19:41.822Z,39.65
2023-01-04T09:22:08.863Z,43.20
2023-01-04T09:24:35.639Z,44.33
2023-01-04T09:27:04.033Z,39.03
2023-01-04T09:29:30.900Z,38.17
2023-01-04T09:31:57.679Z,43.00
2023-01-04T09:34:24.639Z,38.20
2023-01-04T09:36:51.621Z,40.60
2023-01-04T09:39:23.205Z,33.35
2023-01-04T09:42:03.246Z,35.55
2023-01-04T09:47:29.130Z,33.15
2023-01-04T09:50:10.709Z,35.88
2023-01-04T09:52:40.100Z,37.97
2023-01-04T09:55:36.911Z,33.38
2023-01-04T09:58:33.779Z,29.95
2023-01-04T10:01:06.680Z,299.90
2023-01-04T10:03:37.995Z,561.45
2023-01-04T10:06:08.557Z,301.83
2023-01-04T10:08:35.521Z,80.40
2023-01-04T10:11:11.496Z,361.48
2023-01-04T10:13:52.672Z,785.72
2023-01-04T10:21:12.043Z,212.05
2023-01-04T10:23:01.923Z,431.90
2023-01-04T10:25:47.152Z,173.88
2023-01-04T10:28:44.104Z,79.60
2023-01-04T10:31:39.692Z,52.70
2023-01-04T10:34:21.526Z,40.10
2023-01-04T10:36:49.145Z,39.42
2023-01-04T10:39:18.892Z,28.05
2023-01-04T10:41:53.351Z,26.48
2023-01-04T10:44:23.199Z,27.17
2023-01-04T10:47:08.003Z,24.13
2023-01-04T10:49:48.574Z,23.45
2023-01-04T10:52:29.978Z,21.77
2023-01-04T10:55:16.921Z,20.33
2023-01-04T10:57:51.933Z,139.68
2023-01-04T11:00:29.339Z,202.68
2023-01-04T11:03:12.247Z,334.98
2023-01-04T11:05:54.441Z,251.85
2023-01-04T11:08:29.654Z,370.85
2023-01-04T11:11:07.646Z,298.60
2023-01-04T11:13:34.780Z,351.23
2023-01-04T11:16:04.798Z,110.88
2023-01-04T11:18:34.812Z,36.60
2023-01-04T11:21:05.665Z,25.55
2023-01-04T11:23:32.059Z,22.48
2023-01-04T11:26:12.955Z,28.30
2023-01-04T11:29:07.026Z,32.55
2023-01-04T11:32:00.748Z,30.40
2023-01-04T11:34:48.237Z,34.53
2023-01-04T11:37:27.622Z,21.60
2023-01-04T11:40:32.835Z,22.75
2023-01-04T11:43:16.312Z,58.95
2023-01-04T11:46:13.077Z,16.42
2023-01-04T11:48:41.732Z,15.35
2023-01-04T11:51:29.035Z,24.67
2023-01-04T11:53:58.723Z,21.42
2023-01-04T11:56:26.689Z,12.27
2023-01-04T11:59:08.164Z,11.30
2023-01-04T12:01:38.056Z,12.82
2023-01-04T12:04:15.906Z,21.70
2023-01-04T12:06:42.283Z,23.85
2023-01-04T12:09:14.037Z,13.27
2023-01-04T12:11:46.073Z,10.65
2023-01-04T12:14:36.755Z,14.88
2023-01-04T12:17:12.536Z,27.20
2023-01-04T12:19:45.018Z,11.48
2023-01-04T12:22:31.663Z,16.67
2023-01-04T12:25:01.054Z,49.78
2023-01-04T12:27:28.102Z,20.65
2023-01-04T12:29:59.121Z,17.38
2023-01-04T12:32:25.485Z,17.25
2023-01-04T12:34:54.003Z,12.65
2023-01-04T12:37:41.968Z,52.22
2023-01-04T12:40:46.096Z,38.70
2023-01-04T12:43:15.510Z,56.17
2023-01-04T12:45:47.672Z,20.10
2023-01-04T12:49:13.136Z,17.40
2023-01-04T12:51:52.035Z,15.98
2023-01-04T12:54:51.149Z,27.77
2023-01-04T12:57:17.776Z,53.22
2023-01-04T13:00:09.224Z,52.35
2023-01-04T13:02:44.606Z,82.95
2023-01-04T13:08:10.537Z,39.00
2023-01-04T13:10:50.873Z,24.05
2023-01-04T13:13:20.996Z,32.78
2023-01-04T13:16:09.977Z,259.00
2023-01-04T13:18:40.990Z,20.67
2023-01-04T13:21:15.521Z,10.52
2023-01-04T13:23:50.727Z,9.50
2023-01-04T13:26:36.097Z,15.15
2023-01-04T13:29:07.796Z,12.43
2023-01-04T13:31:51.931Z,11.25
2023-01-04T13:34:37.327Z,9.80
2023-01-04T13:37:18.702Z,11.15
2023-01-04T13:40:00.044Z,11.90
2023-01-04T13:42:32.760Z,46.90
2023-01-04T13:45:20.208Z,16.88
2023-01-04T13:47:56.419Z,12.25
2023-01-04T13:50:36.590Z,15.00
2023-01-04T13:53:08.227Z,16.33
2023-01-04T13:55:37.569Z,13.65
2023-01-04T13:58:17.250Z,10.32
2023-01-04T14:01:11.931Z,9.90
2023-01-04T14:03:43.809Z,16.20
2023-01-04T14:06:17.796Z,12.38
2023-01-04T14:08:53.678Z,17.42
2023-01-04T14:12:02.083Z,17.92
2023-01-04T14:14:34.957Z,12.15
2023-01-04T14:17:22.589Z,11.00
2023-01-04T14:19:56.287Z,12.35
2023-01-04T14:22:27.264Z,116.50
2023-01-04T14:25:11.718Z,64.38
2023-01-04T14:27:42.144Z,17.08
2023-01-04T14:30:17.336Z,30.73
2023-01-04T14:33:02.151Z,25.15
2023-01-04T14:35:29.574Z,28.40
2023-01-04T14:38:05.901Z,22.27
2023-01-04T14:40:33.045Z,24.50
2023-01-04T14:42:59.697Z,18.25
2023-01-04T14:45:26.164Z,10.73
2023-01-04T14:47:53.124Z,7.65
2023-01-04T14:50:19.718Z,8.70
2023-01-04T14:52:55.237Z,11.20
2023-01-04T14:55:24.119Z,9.07
2023-01-04T14:57:50.813Z,9.13
2023-01-04T15:00:19.817Z,10.18
2023-01-04T15:02:49.665Z,13.18
2023-01-04T15:05:19.355Z,10.43
2023-01-04T15:07:46.330Z,9.02
2023-01-04T15:10:22.036Z,9.80
2023-01-04T15:12:49.061Z,10.68
2023-01-04T15:15:16.161Z,181.35
2023-01-04T15:17:43.162Z,174.23
2023-01-04T15:20:10.148Z,38.33
2023-01-04T15:22:38.413Z,33.33
2023-01-04T15:25:05.838Z,29.40
2023-01-04T15:27:38.382Z,29.33
2023-01-04T15:30:09.606Z,19.48
2023-01-04T15:32:36.362Z,16.70
2023-01-04T15:35:03.126Z,18.90
2023-01-04T15:37:30.168Z,17.05
2023-01-04T15:40:01.834Z,25.40
2023-01-04T15:42:47.577Z,33.85
2023-01-04T15:45:14.063Z,35.67
2023-01-04T15:47:41.030Z,21.67
2023-01-04T15:50:08.171Z,16.40
2023-01-04T15:52:35.235Z,8.50
2023-01-04T15:55:01.691Z,9.75
2023-01-04T15:57:28.613Z,12.30
2023-01-04T15:59:54.940Z,12.48
2023-01-04T16:02:21.901Z,13.00
2023-01-04T16:04:48.867Z,13.98
2023-01-04T16:07:16.297Z,9.75
2023-01-04T16:09:42.831Z,16.00
2023-01-04T16:12:28.118Z,14.38
2023-01-04T16:14:54.499Z,16.60
2023-01-04T16:17:21.541Z,14.27
2023-01-04T16:19:47.895Z,10.93
2023-01-04T16:22:14.580Z,11.85
2023-01-04T16:27:34.746Z,17.00
2023-01-04T16:30:03.343Z,20.42
2023-01-04T16:32:30.598Z,14.88
2023-01-04T16:34:57.005Z,22.13
2023-01-04T16:37:27.951Z,15.93
2023-01-04T16:40:06.178Z,94.32
2023-01-04T16:42:33.925Z,18.50
2023-01-04T16:45:00.293Z,19.83
2023-01-04T16:47:27.442Z,14.15
2023-01-04T16:49:54.005Z,23.35
2023-01-04T16:52:21.090Z,26.95
2023-01-04T16:54:48.291Z,20.30
2023-01-04T16:57:15.393Z,14.43
2023-01-04T16:59:42.604Z,15.43
2023-01-04T17:02:11.737Z,13.90
2023-01-04T17:04:38.276Z,20.42
2023-01-04T17:07:05.870Z,23.90
2023-01-04T17:09:32.422Z,16.52
2023-01-04T17:14:49.163Z,10.60
2023-01-04T17:17:18.787Z,12.52
2023-01-04T17:19:45.309Z,9.25
2023-01-04T17:22:11.947Z,11.85
2023-01-04T17:24:38.388Z,11.85
2023-01-04T17:27:05.502Z,13.35
2023-01-04T17:29:31.939Z,13.32
2023-01-04T17:31:58.674Z,15.00
2023-01-04T17:34:25.111Z,14.13
2023-01-04T17:36:51.833Z,13.73
2023-01-04T17:39:20.171Z,11.57
2023-01-04T17:41:46.885Z,8.82
2023-01-04T17:44:13.651Z,12.45
2023-01-04T17:46:40.679Z,12.73
2023-01-04T17:49:22.278Z,11.60
2023-01-04T17:51:52.110Z,11.00
2023-01-04T17:54:20.149Z,11.82
2023-01-04T17:56:46.886Z,10.23
2023-01-04T17:59:13.661Z,13.07
2023-01-04T18:01:40.697Z,12.55
2023-01-04T18:04:08.346Z,10.82
2023-01-04T18:06:36.302Z,9.48
2023-01-04T18:09:05.714Z,11.10
2023-01-04T18:11:33.280Z,12.75
2023-01-04T18:14:00.227Z,12.73
2023-01-04T18:16:28.989Z,11.48
2023-01-04T18:18:59.748Z,9.65
2023-01-04T18:21:31.020Z,10.32
2023-01-04T18:24:34.832Z,10.90
2023-01-04T18:29:35.637Z,12.13
2023-01-04T18:32:02.825Z,9.98
2023-01-04T18:34:29.267Z,10.30
2023-01-04T18:36:55.955Z,10.10
2023-01-04T18:39:22.354Z,9.23
2023-01-04T18:41:49.049Z,10.68
2023-01-04T18:44:32.813Z,9.35
2023-01-04T18:47:02.165Z,15.27
2023-01-04T18:49:28.602Z,12.10
2023-01-04T18:51:55.379Z,10.38
2023-01-04T18:54:22.101Z,12.68
2023-01-04T18:56:49.008Z,11.70
2023-01-04T18:59:18.378Z,10.60
2023-01-04T19:01:45.797Z,13.45
2023-01-04T19:04:15.392Z,9.98
2023-01-04T19:06:42.338Z,12.52
2023-01-04T19:09:09.158Z,11.27
2023-01-04T19:11:36.118Z,13.48
2023-01-04T19:14:03.430Z,11.35
2023-01-04T19:16:30.817Z,10.60
2023-01-04T19:18:58.971Z,10.07
2023-01-04T19:21:25.838Z,12.77
2023-01-04T19:23:52.326Z,10.45
2023-01-04T19:26:20.250Z,10.27
2023-01-04T19:28:46.763Z,12.30
2023-01-04T19:31:14.911Z,12.05
2023-01-04T19:33:41.457Z,15.27
2023-01-04T19:36:11.596Z,13.73
2023-01-04T19:38:38.497Z,12.57
2023-01-04T19:41:06.179Z,11.77
2023-01-04T19:43:33.120Z,11.77
2023-01-04T19:45:59.989Z,11.23
2023-01-04T19:48:26.762Z,10.32
2023-01-04T19:51:11.985Z,9.70
2023-01-04T19:53:39.002Z,13.45
2023-01-04T19:56:06.522Z,10.85
2023-01-04T19:58:32.936Z,16.13
2023-01-04T20:00:59.759Z,12.73
2023-01-04T20:03:26.425Z,13.50
2023-01-04T20:05:54.062Z,17.65
2023-01-04T20:08:21.138Z,14.10
2023-01-04T20:10:58.121Z,11.30
2023-01-04T20:13:26.036Z,13.82
2023-01-04T20:15:52.875Z,16.10
2023-01-04T20:18:19.990Z,15.00
2023-01-04T20:20:47.114Z,15.32
2023-01-04T20:23:14.542Z,11.70
2023-01-04T20:25:43.982Z,16.40
2023-01-04T20:28:11.576Z,13.98
2023-01-04T20:30:38.478Z,16.48
2023-01-04T20:33:05.730Z,14.10
2023-01-04T20:35:32.589Z,12.77
2023-01-04T20:37:59.497Z,17.08
2023-01-04T20:40:27.079Z,14.35
2023-01-04T20:43:12.826Z,12.80
2023-01-04T20:45:44.231Z,14.98
2023-01-04T20:48:11.379Z,12.60
2023-01-04T20:50:38.241Z,15.35
2023-01-04T20:53:05.496Z,15.20
2023-01-04T20:55:32.101Z,15.32
2023-01-04T20:57:59.004Z,15.95
2023-01-04T21:00:25.354Z,14.23
2023-01-04T21:02:52.410Z,13.55
2023-01-04T21:05:18.903Z,14.90
2023-01-04T21:07:45.771Z,15.85
2023-01-04T21:10:12.070Z,13.73
2023-01-04T21:12:38.993Z,20.02
2023-01-04T21:15:05.991Z,14.02
2023-01-04T21:17:32.562Z,14.10
2023-01-04T21:19:58.949Z,15.15
2023-01-04T21:22:26.103Z,16.27
2023-01-04T21:24:52.340Z,14.88
2023-01-04T21:27:18.976Z,16.48
2023-01-04T21:29:45.313Z,18.27
2023-01-04T21:32:11.868Z,14.57
2023-01-04T21:34:38.193Z,14.77
2023-01-04T21:37:05.111Z,14.68
2023-01-04T21:39:31.585Z,16.58
2023-01-04T21:41:58.320Z,16.17
2023-01-04T21:44:24.588Z,15.23
2023-01-04T21:46:51.466Z,14.75
2023-01-04T21:49:17.865Z,16.27
2023-01-04T21:51:44.464Z,15.63
2023-01-04T21:54:10.760Z,14.95
2023-01-04T21:56:37.334Z,14.23
2023-01-04T21:59:03.673Z,17.42
2023-01-04T22:01:34.797Z,14.15
2023-01-04T22:04:02.873Z,16.65
2023-01-04T22:06:29.570Z,13.93
2023-01-04T22:08:56.014Z,13.65
2023-01-04T22:11:22.760Z,17.13
2023-01-04T22:13:49.907Z,16.92
2023-01-04T22:16:17.415Z,13.35
2023-01-04T22:18:47.880Z,13.40
2023-01-04T22:21:16.345Z,12.85
2023-01-04T22:23:42.789Z,13.57
2023-01-04T22:26:09.672Z,15.18
2023-01-04T22:28:37.305Z,14.32
2023-01-04T22:31:06.247Z,18.00
2023-01-04T22:33:36.115Z,14.27
2023-01-04T22:36:08.090Z,14.98
2023-01-04T22:38:36.097Z,13.88
2023-01-04T22:41:11.268Z,15.65
2023-01-04T22:43:38.250Z,12.52
2023-01-04T22:46:07.062Z,12.10
2023-01-04T22:48:34.752Z,13.63
2023-01-04T22:51:06.826Z,14.02
2023-01-04T22:53:33.477Z,12.52
2023-01-04T22:56:23.176Z,12.35
2023-01-04T22:58:53.902Z,13.15
2023-01-04T23:01:27.523Z,11.50
2023-01-04T23:03:54.476Z,14.43
2023-01-04T23:06:23.109Z,12.32
2023-01-04T23:08:55.478Z,12.30
2023-01-04T23:11:22.592Z,11.52
2023-01-04T23:13:49.801Z,11.70
2023-01-04T23:16:17.190Z,11.23
2023-01-04T23:18:44.081Z,13.90
2023-01-04T23:21:11.670Z,11.88
2023-01-04T23:23:38.113Z,10.95
2023-01-04T23:26:06.762Z,9.45
2023-01-04T23:28:36.217Z,10.38
2023-01-04T23:31:05.191Z,10.20
2023-01-04T23:33:36.017Z,8.95
2023-01-04T23:36:12.508Z,8.02
2023-01-04T23:38:39.698Z,9.10
2023-01-04T23:41:07.114Z,11.27
2023-01-04T23:43:37.890Z,9.20
2023-01-04T23:46:12.954Z,7.97
2023-01-04T23:48:39.983Z,9.82
2023-01-04T23:51:07.457Z,9.82
2023-01-04T23:53:33.812Z,9.57
2023-01-04T23:56:06.307Z,8.60
2023-01-04T23:58:33.374Z,9.70
